createdAt,value
2023-03-03T00:04:13.370Z,7.00
2023-03-03T00:14:23.714Z,6.90
2023-03-03T00:24:38.050Z,6.90
2023-03-03T00:34:42.233Z,6.80
2023-03-03T00:44:48.867Z,6.70
2023-03-03T00:54:52.883Z,6.60
2023-03-03T01:04:58.155Z,6.60
2023-03-03T01:15:02.268Z,6.50
2023-03-03T01:25:08.253Z,6.50
2023-03-03T01:35:12.060Z,6.40
2023-03-03T01:45:20.197Z,6.30
2023-03-03T01:55:26.440Z,6.10
2023-03-03T02:05:31.714Z,6.40
2023-03-03T02:15:37.310Z,6.40
2023-03-03T02:25:51.646Z,6.70
2023-03-03T02:35:56.953Z,6.80
2023-03-03T02:46:00.744Z,6.60
2023-03-03T02:56:07.455Z,6.20
2023-03-03T03:06:11.663Z,6.10
2023-03-03T03:16:16.747Z,6.10
2023-03-03T03:26:21.299Z,5.80
2023-03-03T03:36:27.270Z,5.70
2023-03-03T03:46:31.004Z,5.50
2023-03-03T03:56:36.338Z,5.40
2023-03-03T04:06:40.050Z,5.40
2023-03-03T04:16:45.318Z,5.40
2023-03-03T04:26:48.925Z,5.40
2023-03-03T04:36:53.953Z,5.40
2023-03-03T04:46:57.526Z,5.50
2023-03-03T04:57:02.616Z,5.70
2023-03-03T05:07:06.827Z,5.70
2023-03-03T05:17:11.944Z,5.50
2023-03-03T05:27:15.910Z,5.70
2023-03-03T05:37:21.135Z,5.60
2023-03-03T05:47:24.829Z,5.50
2023-03-03T05:57:29.935Z,5.30
2023-03-03T06:07:33.654Z,5.30
2023-03-03T06:17:42.853Z,5.60
2023-03-03T06:27:46.444Z,5.50
2023-03-03T06:37:51.959Z,5.40
2023-03-03T06:47:55.681Z,5.30
2023-03-03T06:58:01.349Z,5.50
2023-03-03T07:08:08.137Z,5.70
2023-03-03T07:18:32.873Z,6.10
2023-03-03T07:28:36.688Z,6.30
2023-03-03T07:38:46.529Z,6.50
2023-03-03T07:48:50.598Z,6.70
2023-03-03T07:58:57.016Z,7.10
2023-03-03T08:09:15.234Z,7.40
2023-03-03T08:19:20.444Z,7.90
2023-03-03T08:29:24.167Z,8.30
2023-03-03T08:39:29.517Z,8.70
2023-03-03T08:49:33.228Z,9.10
2023-03-03T08:59:39.441Z,9.50
2023-03-03T09:09:42.998Z,9.90
2023-03-03T09:19:48.194Z,10.20
2023-03-03T09:29:52.093Z,10.70
2023-03-03T09:39:58.723Z,11.30
2023-03-03T09:50:14.335Z,11.60
2023-03-03T10:00:33.701Z,11.60
2023-03-03T10:10:50.305Z,11.70
2023-03-03T10:21:10.138Z,12.00
2023-03-03T10:31:28.489Z,12.60
2023-03-03T10:41:51.064Z,12.80
2023-03-03T10:52:11.452Z,13.10
2023-03-03T11:02:22.676Z,13.40
2023-03-03T11:12:35.389Z,13.60
2023-03-03T11:22:48.615Z,14.20
2023-03-03T11:33:01.534Z,14.20
2023-03-03T11:43:26.318Z,14.90
2023-03-03T11:53:50.968Z,15.50
2023-03-03T12:03:59.879Z,15.70
2023-03-03T12:14:11.120Z,16.30
2023-03-03T12:24:30.387Z,16.10
2023-03-03T12:34:40.395Z,16.90
2023-03-03T12:44:54.862Z,17.10
2023-03-03T12:55:09.144Z,18.00
2023-03-03T13:05:23.246Z,18.30
2023-03-03T13:15:33.265Z,19.00
2023-03-03T13:26:03.626Z,19.00
2023-03-03T13:36:11.887Z,19.30
2023-03-03T13:46:27.141Z,19.10
2023-03-03T13:56:45.088Z,19.80
2023-03-03T14:06:56.722Z,19.80
2023-03-03T14:17:04.989Z,20.60
2023-03-03T14:27:26.466Z,19.90
2023-03-03T14:37:43.690Z,20.20
2023-03-03T14:47:50.102Z,20.10
2023-03-03T14:57:53.883Z,20.40
2023-03-03T15:08:10.371Z,20.20
2023-03-03T15:18:15.394Z,21.30
2023-03-03T15:28:39.367Z,21.20
2023-03-03T15:38:53.306Z,21.00
2023-03-03T15:49:13.485Z,20.30
2023-03-03T15:59:51.379Z,19.10
2023-03-03T16:10:04.959Z,19.00
2023-03-03T16:20:21.820Z,17.80
2023-03-03T16:30:33.506Z,17.70
2023-03-03T16:40:46.266Z,16.30
2023-03-03T16:51:04.429Z,15.40
2023-03-03T17:01:16.230Z,15.10
2023-03-03T17:11:30.948Z,14.30
2023-03-03T17:21:46.034Z,13.70
2023-03-03T17:31:58.782Z,13.40
2023-03-03T17:42:07.854Z,13.10
2023-03-03T17:52:41.755Z,12.90
2023-03-03T18:03:05.104Z,12.60
2023-03-03T18:13:25.975Z,12.20
2023-03-03T18:23:39.940Z,11.50
2023-03-03T18:33:57.893Z,10.60
2023-03-03T18:44:04.752Z,10.10
2023-03-03T18:54:31.097Z,10.00
2023-03-03T19:04:38.776Z,9.60
2023-03-03T19:14:46.919Z,9.60
2023-03-03T19:25:14.112Z,9.30
2023-03-03T19:35:30.178Z,9.10
2023-03-03T19:45:53.683Z,9.00
2023-03-03T19:56:15.952Z,8.90
2023-03-03T20:06:33.590Z,8.70
2023-03-03T20:16:41.844Z,8.50
2023-03-03T20:26:57.919Z,8.30
2023-03-03T20:37:10.277Z,8.30
2023-03-03T20:47:23.294Z,7.90
2023-03-03T20:57:36.004Z,8.10
2023-03-03T21:07:53.766Z,8.10
2023-03-03T21:18:00.040Z,8.00
2023-03-03T21:28:21.385Z,7.90
2023-03-03T21:38:36.475Z,8.00
2023-03-03T21:48:42.944Z,7.80
2023-03-03T21:58:47.941Z,7.80
2023-03-03T22:08:51.896Z,7.50
2023-03-03T22:18:56.954Z,7.60
2023-03-03T22:29:00.680Z,7.30
2023-03-03T22:39:05.777Z,7.40
2023-03-03T22:49:09.372Z,7.40
2023-03-03T22:59:15.002Z,7.50
2023-03-03T23:09:18.694Z,7.50
2023-03-03T23:19:23.670Z,7.50
2023-03-03T23:29:27.423Z,7.50
2023-03-03T23:39:32.710Z,7.40
2023-03-03T23:49:36.831Z,7.40
2023-03-03T23:59:41.926Z,7.50
